Time;durP1;ratioP1;P1;durP2;ratioP2;P2;SDS_P1;SDS_P2;PMS_P1;PMS_P2;Temp;Humidity;BMP_temperature;BMP_pressure;BME280_temperature;BME280_humidity;BME280_pressure;Samples;Min_cycle;Max_cycle;Signal;HPM_P1;HPM_P2
2022/09/16 00:00:17;;;;;;;5.47;2.57;;;13.10;99.90;;;;;;5022206;28;20203;-73
2022/09/16 00:02:42;;;;;;;3.23;1.63;;;13.10;99.90;;;;;;5014517;28;20260;-77
2022/09/16 00:05:08;;;;;;;5.10;2.10;;;13.10;99.90;;;;;;5007669;28;20197;-73
2022/09/16 00:07:34;;;;;;;5.38;1.30;;;13.10;99.90;;;;;;5013503;28;20275;-72
2022/09/16 00:10:00;;;;;;;3.00;1.17;;;13.10;99.90;;;;;;5011441;28;20296;-71
2022/09/16 00:12:26;;;;;;;5.40;2.40;;;13.10;99.90;;;;;;5009959;28;20201;-72
2022/09/16 00:14:53;;;;;;;5.07;3.03;;;13.00;99.90;;;;;;5013419;28;20204;-72
2022/09/16 00:17:19;;;;;;;7.40;3.10;;;13.00;99.90;;;;;;5027604;28;20192;-72
2022/09/16 00:19:44;;;;;;;4.67;1.50;;;13.00;99.90;;;;;;5021944;28;20214;-73
2022/09/16 00:22:10;;;;;;;3.60;1.70;;;13.00;99.90;;;;;;5007268;28;20205;-73
2022/09/16 00:24:36;;;;;;;3.57;1.70;;;12.90;99.90;;;;;;5008569;28;20213;-72
2022/09/16 00:27:02;;;;;;;5.10;1.90;;;12.90;99.90;;;;;;5013189;28;20205;-72
2022/09/16 00:29:27;;;;;;;2.10;1.47;;;12.90;99.90;;;;;;5008944;28;20758;-72
2022/09/16 00:31:53;;;;;;;3.37;1.37;;;12.90;99.90;;;;;;5008037;28;20248;-72
2022/09/16 00:34:18;;;;;;;2.35;1.02;;;12.80;99.90;;;;;;5023570;28;20643;-73
2022/09/16 00:36:44;;;;;;;3.75;1.52;;;12.90;99.90;;;;;;5010065;28;20217;-72
2022/09/16 00:39:09;;;;;;;4.20;1.10;;;12.90;99.90;;;;;;5004846;28;20730;-70
2022/09/16 00:41:36;;;;;;;3.83;1.10;;;12.90;99.90;;;;;;5012666;28;20213;-73
2022/09/16 00:44:05;;;;;;;3.77;1.23;;;12.90;99.90;;;;;;5014084;28;20653;-72
2022/09/16 00:46:38;;;;;;;1.90;0.90;;;12.90;99.90;;;;;;5008710;28;20217;-72
2022/09/16 00:49:11;;;;;;;3.13;1.30;;;12.80;99.90;;;;;;5010957;28;20213;-73
2022/09/16 00:51:38;;;;;;;3.20;1.20;;;12.80;99.90;;;;;;5015912;28;20259;-72
2022/09/16 00:54:05;;;;;;;4.17;1.03;;;12.70;99.90;;;;;;5009646;28;20206;-73
2022/09/16 00:56:36;;;;;;;2.00;0.90;;;12.70;99.90;;;;;;5007778;28;20541;-72
2022/09/16 00:59:04;;;;;;;6.73;1.10;;;12.80;99.90;;;;;;5020648;28;20189;-73
2022/09/16 01:01:31;;;;;;;2.53;1.10;;;12.70;99.90;;;;;;5028442;28;20201;-73
2022/09/16 01:04:04;;;;;;;2.63;1.20;;;12.70;99.90;;;;;;5006086;28;20228;-72
2022/09/16 01:06:34;;;;;;;1.67;0.80;;;12.70;99.90;;;;;;5006255;28;20291;-73
2022/09/16 01:09:01;;;;;;;3.70;1.17;;;12.60;99.90;;;;;;5014535;28;20728;-73
2022/09/16 01:11:26;;;;;;;2.73;1.23;;;12.60;99.90;;;;;;5010338;28;20193;-73
2022/09/16 01:13:53;;;;;;;3.00;1.20;;;12.60;99.90;;;;;;5006229;28;20185;-73
2022/09/16 01:16:29;;;;;;;3.43;1.00;;;12.60;99.90;;;;;;5019693;28;20548;-73
2022/09/16 01:19:01;;;;;;;3.13;1.37;;;12.60;99.90;;;;;;5010354;28;20217;-73
2022/09/16 01:21:47;;;;;;;2.63;1.43;;;12.50;99.90;;;;;;5006772;28;20284;-73
2022/09/16 01:24:24;;;;;;;4.07;1.27;;;12.50;99.90;;;;;;5006475;28;20212;-73
2022/09/16 01:27:23;;;;;;;2.33;0.90;;;12.60;99.90;;;;;;5010740;28;20204;-72
2022/09/16 01:30:11;;;;;;;6.10;1.50;;;12.60;99.90;;;;;;5005876;28;20213;-73
2022/09/16 01:33:03;;;;;;;3.63;1.57;;;12.50;99.90;;;;;;5009206;28;20234;-73
2022/09/16 01:35:47;;;;;;;3.90;1.20;;;12.50;99.90;;;;;;5007330;28;20228;-73
2022/09/16 01:38:59;;;;;;;4.13;1.30;;;12.50;99.90;;;;;;5006548;28;20194;-73
2022/09/16 01:41:49;;;;;;;3.83;1.43;;;12.50;99.90;;;;;;5010174;28;20173;-73
2022/09/16 01:44:27;;;;;;;3.47;1.33;;;12.40;99.90;;;;;;5012708;28;20559;-73
2022/09/16 01:47:05;;;;;;;3.87;1.73;;;12.40;99.90;;;;;;5005339;28;20196;-72
2022/09/16 01:49:41;;;;;;;3.10;1.20;;;12.40;99.90;;;;;;5007955;28;20283;-73
2022/09/16 01:52:40;;;;;;;3.83;1.40;;;12.40;99.90;;;;;;5014716;28;20213;-73
2022/09/16 01:55:14;;;;;;;2.93;1.37;;;12.40;99.90;;;;;;5010270;28;20212;-73
2022/09/16 01:57:55;;;;;;;3.50;1.40;;;12.40;99.90;;;;;;5011993;28;20216;-72
2022/09/16 02:00:21;;;;;;;2.90;1.20;;;12.40;99.90;;;;;;5010420;28;20608;-74
2022/09/16 02:03:04;;;;;;;5.97;1.43;;;12.40;99.90;;;;;;5006372;28;20232;-72
2022/09/16 02:05:39;;;;;;;2.80;1.17;;;12.30;99.90;;;;;;4999949;28;20687;-73
2022/09/16 02:08:10;;;;;;;4.93;1.30;;;12.30;99.90;;;;;;5007544;28;20177;-72
2022/09/16 02:10:45;;;;;;;3.27;1.53;;;12.20;99.90;;;;;;5008990;28;20215;-73
2022/09/16 02:13:25;;;;;;;4.77;1.67;;;12.30;99.90;;;;;;5003321;28;20213;-72
2022/09/16 02:15:54;;;;;;;3.57;1.40;;;12.20;99.90;;;;;;5005162;28;20271;-73
2022/09/16 02:18:26;;;;;;;4.80;1.53;;;12.20;99.90;;;;;;5004743;28;20209;-72
2022/09/16 02:20:55;;;;;;;3.07;1.93;;;12.20;99.90;;;;;;5000809;28;20633;-73
2022/09/16 02:23:29;;;;;;;3.80;1.60;;;12.20;99.90;;;;;;5002563;28;20187;-73
2022/09/16 02:25:57;;;;;;;5.30;1.83;;;12.10;99.90;;;;;;5007418;28;20298;-73
2022/09/16 02:28:29;;;;;;;4.80;1.97;;;12.10;99.90;;;;;;5005820;28;20208;-75
2022/09/16 02:30:57;;;;;;;4.40;1.80;;;12.10;99.90;;;;;;4999545;28;20688;-73
2022/09/16 02:33:29;;;;;;;3.23;1.40;;;12.10;99.90;;;;;;5005463;28;20226;-73
2022/09/16 02:35:56;;;;;;;4.97;1.80;;;12.10;99.90;;;;;;5006007;28;20208;-73
2022/09/16 02:38:48;;;;;;;4.30;2.03;;;12.00;99.90;;;;;;5004381;28;20545;-74
2022/09/16 02:41:14;;;;;;;5.63;1.77;;;12.00;99.90;;;;;;5004840;28;20257;-73
2022/09/16 02:43:44;;;;;;;3.00;1.73;;;12.10;99.90;;;;;;5008010;28;20670;-73
2022/09/16 02:46:32;;;;;;;7.80;2.00;;;12.00;99.90;;;;;;5007082;28;20758;-73
2022/09/16 02:49:13;;;;;;;4.30;1.30;;;12.00;99.90;;;;;;4999343;28;20692;-74
2022/09/16 02:51:48;;;;;;;4.47;1.63;;;12.00;99.90;;;;;;5008663;28;20691;-74
2022/09/16 02:54:35;;;;;;;5.13;1.90;;;12.00;99.90;;;;;;5011927;23;20251;-76
2022/09/16 02:57:01;;;;;;;4.03;2.03;;;12.00;99.90;;;;;;4968153;28;20611;-76
2022/09/16 02:59:27;;;;;;;7.70;1.97;;;12.00;99.90;;;;;;4972193;28;20178;-76
2022/09/16 03:01:53;;;;;;;6.47;1.93;;;12.00;99.90;;;;;;4983451;28;20187;-76
2022/09/16 03:04:19;;;;;;;4.77;1.47;;;11.90;99.90;;;;;;4966393;28;20309;-76
2022/09/16 03:06:46;;;;;;;3.77;1.77;;;11.90;99.90;;;;;;4970724;28;20293;-76
2022/09/16 03:09:14;;;;;;;2.87;1.67;;;11.90;99.90;;;;;;4974870;28;20210;-76
2022/09/16 03:11:39;;;;;;;4.13;1.90;;;11.90;99.90;;;;;;4973265;28;20289;-76
2022/09/16 03:14:12;;;;;;;7.20;2.20;;;11.90;99.90;;;;;;4968560;28;20814;-76
2022/09/16 03:16:59;;;;;;;6.47;1.97;;;11.90;99.90;;;;;;4979157;28;20606;-76
2022/09/16 03:19:49;;;;;;;9.90;1.93;;;11.90;99.90;;;;;;4969673;28;20213;-76
2022/09/16 03:22:15;;;;;;;7.00;2.43;;;11.90;99.90;;;;;;4969194;28;20289;-76
2022/09/16 03:24:51;;;;;;;2.83;1.70;;;11.90;99.90;;;;;;4976413;28;20309;-77
2022/09/16 03:27:30;;;;;;;5.07;2.23;;;11.80;99.90;;;;;;4991992;28;20267;-77
2022/09/16 03:30:09;;;;;;;4.80;1.73;;;11.90;99.90;;;;;;4968538;28;20594;-76
2022/09/16 03:32:48;;;;;;;4.07;1.90;;;11.90;99.90;;;;;;4969998;28;20296;-76
2022/09/16 03:35:26;;;;;;;3.83;1.97;;;11.80;99.90;;;;;;4978796;28;20200;-76
2022/09/16 03:37:54;;;;;;;5.17;1.87;;;11.80;99.90;;;;;;4972726;28;20179;-76
2022/09/16 03:40:20;;;;;;;3.97;1.97;;;11.70;99.90;;;;;;4969865;28;20585;-76
2022/09/16 03:42:46;;;;;;;5.40;1.93;;;11.70;99.90;;;;;;4977277;28;20202;-75
2022/09/16 03:45:16;;;;;;;4.80;1.80;;;11.70;99.90;;;;;;4976992;28;20634;-76
2022/09/16 03:47:43;;;;;;;5.40;2.23;;;11.70;99.90;;;;;;4966914;28;20241;-76
2022/09/16 03:50:09;;;;;;;6.47;2.33;;;11.80;99.90;;;;;;4973213;28;20676;-76
2022/09/16 03:52:34;;;;;;;4.63;2.07;;;11.70;99.90;;;;;;4978052;28;20218;-76
2022/09/16 03:55:00;;;;;;;5.43;2.60;;;11.70;99.90;;;;;;4973156;28;20225;-75
2022/09/16 03:57:27;;;;;;;3.97;2.23;;;11.70;99.90;;;;;;4970586;28;20370;-76
2022/09/16 03:59:52;;;;;;;4.17;2.10;;;11.70;99.90;;;;;;4974515;28;20776;-74
2022/09/16 04:02:18;;;;;;;6.60;2.57;;;11.70;99.90;;;;;;4978540;28;20248;-77
2022/09/16 04:04:43;;;;;;;5.93;2.53;;;11.70;99.90;;;;;;4970448;28;20752;-76
2022/09/16 04:07:09;;;;;;;5.60;2.43;;;11.70;99.90;;;;;;4974657;28;20203;-76
2022/09/16 04:09:36;;;;;;;4.43;2.17;;;11.80;99.90;;;;;;4975835;28;20213;-75
2022/09/16 04:12:02;;;;;;;3.83;2.80;;;11.70;99.90;;;;;;4969650;28;20217;-76
2022/09/16 04:14:28;;;;;;;5.43;2.50;;;11.70;99.90;;;;;;4969975;28;20252;-76
2022/09/16 04:16:54;;;;;;;6.27;2.20;;;11.60;99.90;;;;;;4977379;28;20202;-74
2022/09/16 04:19:20;;;;;;;5.77;2.63;;;11.60;99.90;;;;;;4977182;28;20209;-76
2022/09/16 04:21:45;;;;;;;7.63;2.57;;;11.70;99.90;;;;;;4966578;28;20215;-77
2022/09/16 04:24:12;;;;;;;9.90;2.90;;;11.60;99.90;;;;;;4975498;28;20253;-76
2022/09/16 04:26:37;;;;;;;4.53;2.43;;;11.70;99.90;;;;;;4977290;28;20625;-75
2022/09/16 04:29:03;;;;;;;6.47;2.17;;;11.70;99.90;;;;;;4970284;28;20191;-77
2022/09/16 04:31:28;;;;;;;4.90;2.07;;;11.70;99.90;;;;;;4965423;28;20202;-76
2022/09/16 04:33:54;;;;;;;8.27;2.70;;;11.70;99.90;;;;;;4976501;28;20225;-75
2022/09/16 04:36:19;;;;;;;7.30;2.63;;;11.70;99.90;;;;;;4975148;28;20228;-77
2022/09/16 04:38:46;;;;;;;6.37;2.50;;;11.70;99.90;;;;;;4966719;28;20575;-77
2022/09/16 04:41:17;;;;;;;5.13;2.43;;;11.70;99.90;;;;;;4974089;28;20183;-77
2022/09/16 04:43:43;;;;;;;4.97;2.20;;;11.60;99.90;;;;;;4969625;28;20654;-76
2022/09/16 04:46:10;;;;;;;4.57;2.30;;;11.60;99.90;;;;;;4971813;28;20210;-76
2022/09/16 04:48:36;;;;;;;8.87;2.60;;;11.60;99.90;;;;;;4970086;28;20224;-76
2022/09/16 04:51:10;;;;;;;7.57;2.10;;;11.60;99.90;;;;;;4977289;28;20211;-76
2022/09/16 04:53:37;;;;;;;5.43;2.70;;;11.70;99.90;;;;;;4974620;28;20221;-76
2022/09/16 04:56:14;;;;;;;6.20;2.47;;;11.70;99.90;;;;;;4967228;28;20278;-76
2022/09/16 04:58:45;;;;;;;4.63;2.00;;;11.70;99.90;;;;;;4975669;28;20645;-76
2022/09/16 05:01:16;;;;;;;7.90;2.20;;;11.80;99.90;;;;;;4975277;28;20206;-76
2022/09/16 05:03:44;;;;;;;4.70;2.30;;;11.80;99.90;;;;;;4971718;28;20710;-76
2022/09/16 05:06:13;;;;;;;7.97;2.27;;;11.90;99.90;;;;;;4973264;28;20721;-76
2022/09/16 05:08:39;;;;;;;5.27;2.13;;;12.00;99.90;;;;;;4977436;28;20292;-77
2022/09/16 05:11:14;;;;;;;5.00;1.90;;;12.10;99.90;;;;;;4971749;28;20266;-76
2022/09/16 05:13:40;;;;;;;8.23;2.30;;;12.10;99.90;;;;;;4966026;28;20453;-76
2022/09/16 05:16:09;;;;;;;7.90;2.97;;;12.10;99.90;;;;;;4975070;28;20222;-76
2022/09/16 05:18:36;;;;;;;2.17;1.60;;;12.10;99.90;;;;;;4974439;28;20221;-74
2022/09/16 05:21:05;;;;;;;5.83;1.97;;;12.10;99.90;;;;;;4967641;28;20223;-76
2022/09/16 05:23:31;;;;;;;2.60;1.70;;;12.00;99.90;;;;;;4975343;28;20288;-76
2022/09/16 05:26:03;;;;;;;3.87;1.93;;;12.00;99.90;;;;;;4975531;28;20209;-75
2022/09/16 05:28:28;;;;;;;5.70;2.27;;;12.20;99.90;;;;;;4971984;28;20289;-76
2022/09/16 05:30:54;;;;;;;5.90;2.03;;;12.30;99.90;;;;;;4968881;28;20588;-76
2022/09/16 05:33:19;;;;;;;4.13;1.73;;;12.60;99.90;;;;;;4972413;28;20233;-76
2022/09/16 05:35:45;;;;;;;4.83;1.60;;;12.90;99.90;;;;;;4973580;28;20210;-76
2022/09/16 05:38:12;;;;;;;4.77;1.57;;;13.10;99.90;;;;;;4984135;28;20258;-76
2022/09/16 05:40:37;;;;;;;3.77;1.70;;;13.10;99.90;;;;;;4974800;28;20640;-75
2022/09/16 05:43:03;;;;;;;6.17;2.10;;;13.70;99.90;;;;;;4976196;28;20258;-74
2022/09/16 05:45:28;;;;;;;7.93;1.63;;;13.60;99.90;;;;;;4971873;28;20214;-76
2022/09/16 05:47:54;;;;;;;9.93;4.07;;;13.60;99.90;;;;;;4963656;28;20242;-75
2022/09/16 05:50:20;;;;;;;5.47;1.97;;;13.80;99.90;;;;;;4973189;28;20186;-76
2022/09/16 05:52:45;;;;;;;2.55;1.25;;;14.30;99.90;;;;;;4974294;28;20262;-75
2022/09/16 05:55:11;;;;;;;6.30;1.75;;;14.50;99.90;;;;;;4969748;28;20747;-75
2022/09/16 05:57:36;;;;;;;4.03;1.60;;;15.00;99.90;;;;;;4968064;28;20730;-76
2022/09/16 06:00:04;;;;;;;5.57;1.52;;;17.10;99.90;;;;;;4975380;28;20215;-76
2022/09/16 06:02:29;;;;;;;6.20;2.10;;;17.00;99.90;;;;;;4975551;28;20210;-76
2022/09/16 06:04:55;;;;;;;3.75;1.63;;;16.30;99.90;;;;;;4963756;28;20230;-76
2022/09/16 06:07:20;;;;;;;4.10;2.00;;;17.30;99.90;;;;;;4976617;28;20508;-77
2022/09/16 06:09:46;;;;;;;5.50;1.40;;;16.80;99.90;;;;;;4970440;28;20206;-76
2022/09/16 06:12:11;;;;;;;4.10;1.50;;;16.00;99.90;;;;;;4968851;28;20216;-76
2022/09/16 06:14:37;;;;;;;3.85;1.63;;;16.40;99.90;;;;;;4962283;28;20273;-76
2022/09/16 06:17:03;;;;;;;4.57;1.50;;;16.30;99.90;;;;;;4975121;28;20182;-76
2022/09/16 06:19:28;;;;;;;8.63;2.17;;;16.30;99.90;;;;;;4971277;28;20539;-75
2022/09/16 06:21:54;;;;;;;3.15;1.30;;;16.60;99.90;;;;;;4963592;28;20346;-75
2022/09/16 06:24:20;;;;;;;4.95;1.60;;;16.60;99.90;;;;;;4977116;28;20280;-77
2022/09/16 06:26:47;;;;;;;5.55;2.00;;;16.20;99.90;;;;;;4972580;28;20297;-77
2022/09/16 06:29:14;;;;;;;6.45;1.83;;;16.00;99.90;;;;;;4969205;28;20236;-76
2022/09/16 06:31:40;;;;;;;5.38;2.10;;;16.20;99.90;;;;;;4962185;28;20218;-76
2022/09/16 06:34:07;;;;;;;5.60;1.70;;;16.80;99.90;;;;;;4975688;28;20313;-74
2022/09/16 06:36:35;;;;;;;6.35;2.10;;;16.20;99.90;;;;;;4971119;28;20681;-76
2022/09/16 06:39:02;;;;;;;7.38;1.98;;;16.60;99.90;;;;;;4978926;28;20221;-76
2022/09/16 06:41:27;;;;;;;3.20;1.63;;;17.30;99.90;;;;;;4973321;28;20262;-74
2022/09/16 06:43:53;;;;;;;4.78;2.05;;;16.70;99.90;;;;;;4972195;28;20198;-73
2022/09/16 06:46:23;;;;;;;4.05;1.73;;;18.40;99.90;;;;;;4973027;28;20727;-74
2022/09/16 06:48:55;;;;;;;3.97;1.67;;;19.30;99.90;;;;;;4963946;28;20282;-75
2022/09/16 06:51:26;;;;;;;4.93;1.48;;;19.60;99.90;;;;;;4975439;28;20225;-75
2022/09/16 06:53:55;;;;;;;2.90;1.52;;;18.70;99.90;;;;;;4973679;28;20255;-74
2022/09/16 06:56:21;;;;;;;4.28;1.55;;;19.60;99.90;;;;;;4969872;28;20261;-75
2022/09/16 06:58:49;;;;;;;3.53;1.95;;;19.50;99.90;;;;;;4977113;28;20249;-74
2022/09/16 07:01:20;;;;;;;3.65;1.60;;;19.70;99.90;;;;;;4976980;28;20193;-74
2022/09/16 07:03:48;;;;;;;5.05;2.00;;;19.80;99.90;;;;;;4972563;28;20198;-74
2022/09/16 07:06:15;;;;;;;6.03;1.98;;;19.60;99.90;;;;;;4975830;28;20212;-74
2022/09/16 07:08:41;;;;;;;6.20;1.40;;;20.00;99.90;;;;;;4978968;28;20205;-74
2022/09/16 07:11:11;;;;;;;3.00;1.52;;;19.20;99.90;;;;;;4973743;28;20187;-74
2022/09/16 07:13:37;;;;;;;4.43;1.60;;;18.70;99.90;;;;;;4967762;28;20214;-74
2022/09/16 07:16:06;;;;;;;4.07;1.60;;;17.70;99.90;;;;;;4977287;28;20202;-74
2022/09/16 07:18:32;;;;;;;3.15;1.48;;;16.80;99.90;;;;;;4976652;28;20293;-74
2022/09/16 07:21:05;;;;;;;6.80;2.45;;;16.90;99.90;;;;;;4972683;28;20293;-73
2022/09/16 07:23:31;;;;;;;2.55;1.30;;;18.30;99.90;;;;;;4975076;28;20574;-74
2022/09/16 07:26:05;;;;;;;5.55;1.50;;;19.10;99.90;;;;;;4977870;28;20288;-74
2022/09/16 07:28:32;;;;;;;2.88;1.30;;;20.30;99.90;;;;;;4973369;28;20228;-75
2022/09/16 07:31:07;;;;;;;4.68;1.80;;;21.80;99.90;;;;;;4965669;28;20258;-74
2022/09/16 07:33:40;;;;;;;3.72;1.50;;;22.60;99.90;;;;;;4975619;28;20691;-75
2022/09/16 07:36:08;;;;;;;4.07;1.13;;;22.90;99.90;;;;;;4974651;28;20215;-75
2022/09/16 07:38:34;;;;;;;5.55;2.40;;;21.80;99.90;;;;;;4973003;28;20206;-75
2022/09/16 07:41:14;;;;;;;6.43;2.05;;;20.40;99.90;;;;;;4971617;28;20178;-75
2022/09/16 07:43:41;;;;;;;5.90;1.77;;;20.60;99.90;;;;;;4975454;28;20596;-74
2022/09/16 07:46:07;;;;;;;3.92;1.60;;;20.90;99.90;;;;;;4971544;28;20222;-75
2022/09/16 07:48:33;;;;;;;3.33;1.50;;;21.70;99.90;;;;;;4966073;28;20198;-75
2022/09/16 07:51:02;;;;;;;3.08;1.25;;;22.20;99.90;;;;;;4976398;28;20748;-74
2022/09/16 07:53:29;;;;;;;5.07;1.10;;;22.60;99.90;;;;;;4976661;28;20222;-75
2022/09/16 07:56:02;;;;;;;2.67;1.20;;;21.50;99.90;;;;;;4971688;28;20415;-74
2022/09/16 07:58:28;;;;;;;4.32;1.20;;;21.20;99.90;;;;;;4969852;28;20208;-75
2022/09/16 08:00:53;;;;;;;2.78;1.20;;;20.50;99.90;;;;;;4974504;28;20206;-74
2022/09/16 08:03:19;;;;;;;5.70;1.42;;;19.60;99.90;;;;;;4976476;28;20206;-74
2022/09/16 08:05:44;;;;;;;3.60;1.30;;;19.10;99.90;;;;;;4963895;28;20226;-75
2022/09/16 08:08:10;;;;;;;2.72;1.20;;;18.70;99.90;;;;;;4980165;28;20183;-75
2022/09/16 08:10:36;;;;;;;2.97;1.38;;;18.30;99.90;;;;;;4973993;28;20170;-73
2022/09/16 08:13:05;;;;;;;6.72;1.63;;;17.70;99.90;;;;;;4972306;28;20289;-74
2022/09/16 08:15:31;;;;;;;6.60;1.27;;;17.30;99.90;;;;;;4969027;28;20237;-75
2022/09/16 08:17:56;;;;;;;5.38;1.30;;;17.10;99.90;;;;;;4975108;28;20241;-74
2022/09/16 08:20:24;;;;;;;5.10;1.38;;;17.00;99.90;;;;;;4975699;28;20166;-75
2022/09/16 08:22:49;;;;;;;4.38;1.40;;;17.10;99.90;;;;;;4968136;28;20397;-74
2022/09/16 08:25:15;;;;;;;4.05;2.20;;;17.20;99.90;;;;;;4981057;28;20241;-75
2022/09/16 08:27:41;;;;;;;13.00;6.28;;;17.00;99.90;;;;;;4971031;28;20230;-74
2022/09/16 08:30:09;;;;;;;4.10;1.60;;;17.40;99.90;;;;;;4968184;28;20207;-74
2022/09/16 08:32:34;;;;;;;4.78;2.45;;;17.40;99.90;;;;;;4968987;28;20574;-75
2022/09/16 08:35:00;;;;;;;8.18;2.92;;;17.30;99.90;;;;;;4976813;28;20210;-74
2022/09/16 08:37:26;;;;;;;10.52;4.10;;;17.00;99.90;;;;;;4972405;28;20221;-74
2022/09/16 08:39:52;;;;;;;7.78;4.15;;;17.10;99.90;;;;;;4963595;28;20237;-76
2022/09/16 08:42:35;;;;;;;10.70;7.18;;;17.90;99.90;;;;;;4980464;28;20698;-76
2022/09/16 08:45:38;;;;;;;4.32;2.00;;;19.40;99.90;;;;;;4973696;28;20218;-76
2022/09/16 08:48:27;;;;;;;4.68;1.60;;;20.30;99.90;;;;;;4965468;28;20215;-76
2022/09/16 08:50:53;;;;;;;3.67;1.88;;;20.80;99.90;;;;;;4974878;28;20298;-75
2022/09/16 08:53:29;;;;;;;5.63;2.13;;;21.40;99.90;;;;;;4977503;28;20636;-75
2022/09/16 08:55:55;;;;;;;5.50;2.83;;;21.80;99.90;;;;;;4990947;23;20323;-75
2022/09/16 08:58:39;;;;;;;4.20;1.58;;;22.00;99.90;;;;;;5020668;28;20295;-74
2022/09/16 09:01:33;;;;;;;4.45;1.77;;;21.20;99.90;;;;;;5013000;28;20679;-75
2022/09/16 09:03:59;;;;;;;4.30;1.50;;;20.70;99.90;;;;;;5007109;28;20348;-74
2022/09/16 09:06:36;;;;;;;6.32;2.58;;;19.90;99.90;;;;;;5001919;28;20292;-74
2022/09/16 09:09:18;;;;;;;3.22;1.65;;;20.30;99.90;;;;;;5013269;28;20691;-74
2022/09/16 09:12:05;;;;;;;5.90;1.90;;;20.20;99.90;;;;;;5012377;28;20231;-74
2022/09/16 09:14:51;;;;;;;6.20;1.65;;;20.00;99.90;;;;;;4992004;28;20245;-74
2022/09/16 09:17:46;;;;;;;5.15;2.03;;;19.60;99.90;;;;;;4993484;28;20243;-76
2022/09/16 09:20:44;;;;;;;4.85;2.13;;;19.30;99.90;;;;;;4995153;28;20216;-73
2022/09/16 09:23:38;;;;;;;5.72;1.45;;;19.50;99.90;;;;;;5003362;28;20182;-75
2022/09/16 09:26:08;;;;;;;6.03;1.38;;;19.20;99.90;;;;;;4998401;28;20213;-74
2022/09/16 09:29:05;;;;;;;4.95;1.40;;;18.50;99.90;;;;;;4995133;28;20703;-74
2022/09/16 09:31:54;;;;;;;5.55;1.85;;;18.50;99.90;;;;;;4994253;28;20338;-75
2022/09/16 09:34:23;;;;;;;14.50;5.93;;;19.40;99.90;;;;;;4992471;28;20721;-74
2022/09/16 09:37:20;;;;;;;5.65;2.95;;;19.70;99.90;;;;;;4994516;28;20214;-75
2022/09/16 09:39:56;;;;;;;4.72;1.30;;;19.80;99.90;;;;;;4991430;28;20197;-73
2022/09/16 09:42:30;;;;;;;6.65;1.63;;;20.30;99.90;;;;;;5009281;28;20674;-73
2022/09/16 09:45:02;;;;;;;6.00;1.83;;;20.00;99.90;;;;;;4996084;28;20225;-74
2022/09/16 09:47:47;;;;;;;5.20;2.25;;;20.40;99.90;;;;;;4992731;28;20210;-73
2022/09/16 09:50:25;;;;;;;7.82;1.90;;;19.70;99.90;;;;;;5001423;28;20235;-73
2022/09/16 09:53:27;;;;;;;6.63;1.60;;;19.20;99.90;;;;;;4991928;28;20173;-73
2022/09/16 09:56:17;;;;;;;7.57;2.53;;;19.20;99.90;;;;;;4991985;28;20232;-73
2022/09/16 09:59:07;;;;;;;6.43;2.78;;;18.80;99.90;;;;;;4963466;28;20664;-73
2022/09/16 10:01:33;;;;;;;5.60;1.85;;;18.40;99.90;;;;;;4990760;28;20660;-74
2022/09/16 10:03:59;;;;;;;7.10;1.65;;;18.30;99.90;;;;;;5001914;28;20221;-75
2022/09/16 10:06:28;;;;;;;6.70;2.00;;;18.30;99.90;;;;;;4995049;28;20799;-75
2022/09/16 10:08:56;;;;;;;2.72;1.42;;;19.10;99.90;;;;;;4997294;28;20223;-75
2022/09/16 10:11:27;;;;;;;7.50;1.80;;;19.30;99.90;;;;;;5010564;28;20177;-74
2022/09/16 10:13:56;;;;;;;8.85;1.63;;;19.40;99.90;;;;;;4992872;28;20186;-77
2022/09/16 10:16:29;;;;;;;5.30;1.95;;;19.60;99.90;;;;;;5012505;28;20756;-74
2022/09/16 10:19:05;;;;;;;15.30;2.50;;;19.20;99.90;;;;;;4995976;28;20268;-73
2022/09/16 10:21:46;;;;;;;4.10;1.30;;;18.70;99.90;;;;;;4991350;28;20224;-74
2022/09/16 10:24:33;;;;;;;5.75;2.35;;;18.50;99.90;;;;;;5002359;28;20236;-73
2022/09/16 10:27:01;;;;;;;7.47;2.30;;;18.60;99.90;;;;;;5014726;28;20232;-73
2022/09/16 10:29:27;;;;;;;5.35;1.92;;;18.40;99.90;;;;;;4997729;28;20320;-74
2022/09/16 10:31:54;;;;;;;5.95;1.98;;;18.30;99.90;;;;;;4995618;28;20177;-74
2022/09/16 10:34:29;;;;;;;6.40;1.70;;;18.40;99.90;;;;;;5019168;28;20222;-74
2022/09/16 10:37:11;;;;;;;5.05;1.50;;;18.40;99.90;;;;;;4997287;28;20633;-74
2022/09/16 10:39:41;;;;;;;6.95;1.67;;;18.80;99.90;;;;;;4997452;28;20356;-74
2022/09/16 10:42:36;;;;;;;4.63;0.90;;;19.20;99.90;;;;;;5003919;28;20317;-74
2022/09/16 10:45:25;;;;;;;5.13;1.40;;;19.40;99.90;;;;;;4995429;28;20221;-74
2022/09/16 10:47:54;;;;;;;5.93;1.50;;;19.10;99.90;;;;;;5007286;28;20206;-73
2022/09/16 10:50:20;;;;;;;6.25;2.35;;;18.90;99.90;;;;;;4996075;28;20173;-72
2022/09/16 10:52:47;;;;;;;6.63;1.80;;;19.10;99.90;;;;;;4999454;28;20479;-74
2022/09/16 10:55:20;;;;;;;6.50;1.58;;;19.20;99.90;;;;;;4997740;28;20223;-74
2022/09/16 10:57:46;;;;;;;10.63;4.60;;;19.20;99.90;;;;;;5010304;28;20244;-75
2022/09/16 11:00:14;;;;;;;7.97;2.72;;;19.20;99.90;;;;;;5001704;28;20303;-73
2022/09/16 11:03:20;;;;;;;11.77;2.15;;;19.20;99.90;;;;;;5002009;28;20216;-74
2022/09/16 11:06:07;;;;;;;6.10;1.92;;;19.20;99.90;;;;;;4997101;28;20209;-74
2022/09/16 11:08:55;;;;;;;6.90;2.03;;;19.20;99.90;;;;;;5000189;28;20220;-73
2022/09/16 11:11:38;;;;;;;5.50;2.40;;;18.90;99.90;;;;;;5000480;28;20223;-73
2022/09/16 11:14:22;;;;;;;9.73;4.40;;;18.80;99.90;;;;;;4993592;28;20173;-74
2022/09/16 11:17:00;;;;;;;5.88;1.52;;;18.60;99.90;;;;;;4999466;28;20691;-75
2022/09/16 11:19:39;;;;;;;8.95;3.25;;;18.30;99.90;;;;;;4999964;28;20255;-74
2022/09/16 11:22:29;;;;;;;7.88;1.38;;;18.30;99.90;;;;;;4996906;28;20237;-75
2022/09/16 11:25:26;;;;;;;5.95;1.55;;;18.30;99.90;;;;;;4996500;28;20213;-74
2022/09/16 11:28:29;;;;;;;4.38;1.48;;;18.30;99.90;;;;;;4996130;28;20762;-78
2022/09/16 11:31:13;;;;;;;5.20;0.85;;;18.40;99.90;;;;;;4999321;28;20214;-74
2022/09/16 11:33:48;;;;;;;3.83;1.40;;;18.20;99.90;;;;;;4999309;28;20251;-74
2022/09/16 11:36:28;;;;;;;3.78;1.77;;;18.30;99.90;;;;;;4999336;28;20216;-73
2022/09/16 11:39:19;;;;;;;9.50;1.63;;;18.40;99.90;;;;;;5010913;28;20235;-75
2022/09/16 11:42:29;;;;;;;4.13;1.77;;;18.20;99.90;;;;;;5001799;28;20194;-74
2022/09/16 11:45:36;;;;;;;5.35;1.48;;;18.40;99.90;;;;;;4973455;28;20699;-74
2022/09/16 11:48:11;;;;;;;7.72;1.75;;;18.20;99.90;;;;;;4993564;28;20300;-75
2022/09/16 11:51:09;;;;;;;4.55;1.30;;;18.00;99.90;;;;;;5000050;28;20636;-74
2022/09/16 11:53:43;;;;;;;6.15;1.35;;;17.80;99.90;;;;;;4957256;28;20220;-78
2022/09/16 11:56:26;;;;;;;6.97;1.25;;;18.10;99.90;;;;;;4994695;28;20577;-74
2022/09/16 11:58:53;;;;;;;5.72;1.70;;;18.10;99.90;;;;;;4994089;28;20172;-74
2022/09/16 12:01:34;;;;;;;6.43;1.60;;;17.80;99.90;;;;;;4993076;28;20205;-74
2022/09/16 12:04:27;;;;;;;5.72;1.15;;;17.80;99.90;;;;;;5001361;28;20716;-74
2022/09/16 12:07:00;;;;;;;5.18;1.55;;;17.90;99.90;;;;;;4992678;28;20210;-76
2022/09/16 12:09:49;;;;;;;3.97;1.45;;;18.10;99.90;;;;;;4999579;28;20645;-74
2022/09/16 12:12:21;;;;;;;3.17;1.20;;;18.20;99.90;;;;;;5011838;28;20259;-74
2022/09/16 12:14:55;;;;;;;4.50;1.40;;;18.20;99.90;;;;;;4994018;28;20625;-74
2022/09/16 12:17:28;;;;;;;4.78;1.50;;;18.40;99.90;;;;;;4996127;28;20224;-74
2022/09/16 12:20:16;;;;;;;4.10;2.20;;;18.50;99.90;;;;;;5003837;28;20203;-75
2022/09/16 12:22:47;;;;;;;6.88;3.35;;;18.50;99.90;;;;;;4993018;28;20201;-74
2022/09/16 12:25:37;;;;;;;4.20;2.42;;;18.60;99.90;;;;;;5017820;28;20204;-74
2022/09/16 12:28:14;;;;;;;5.75;2.03;;;18.70;99.90;;;;;;4995615;28;20593;-74
2022/09/16 12:30:43;;;;;;;3.63;2.75;;;18.80;99.90;;;;;;4996714;28;20242;-74
2022/09/16 12:33:22;;;;;;;3.88;1.67;;;18.80;99.90;;;;;;5002665;28;20233;-75
2022/09/16 12:36:09;;;;;;;3.95;2.00;;;18.90;99.90;;;;;;5009781;28;20216;-74
2022/09/16 12:38:35;;;;;;;3.67;1.65;;;18.80;99.90;;;;;;4992137;28;20699;-74
2022/09/16 12:41:35;;;;;;;9.10;2.63;;;18.60;99.90;;;;;;5003007;28;20269;-74
2022/09/16 12:44:04;;;;;;;2.47;1.25;;;18.70;99.90;;;;;;4996284;28;20486;-74
2022/09/16 12:46:44;;;;;;;6.03;1.50;;;18.60;99.90;;;;;;4994996;28;20222;-75
2022/09/16 12:49:37;;;;;;;3.67;1.00;;;18.70;99.90;;;;;;4995726;28;20213;-75
2022/09/16 12:52:23;;;;;;;5.47;1.77;;;18.70;99.90;;;;;;5002203;28;20252;-74
2022/09/16 12:55:25;;;;;;;11.48;4.90;;;18.90;99.90;;;;;;4995508;28;20213;-73
2022/09/16 12:58:45;;;;;;;7.55;1.80;;;18.80;99.90;;;;;;4996638;28;20220;-74
2022/09/16 13:01:36;;;;;;;2.63;1.17;;;18.70;99.90;;;;;;4938873;28;20211;-74
2022/09/16 13:04:42;;;;;;;3.42;0.85;;;18.70;99.90;;;;;;4993387;28;20201;-73
2022/09/16 13:07:30;;;;;;;3.08;1.10;;;18.50;99.90;;;;;;4996480;28;20683;-73
2022/09/16 13:10:00;;;;;;;4.20;1.05;;;18.40;99.90;;;;;;4996727;28;20212;-73
2022/09/16 13:12:28;;;;;;;4.75;1.33;;;18.40;99.90;;;;;;4995237;28;20198;-74
2022/09/16 13:15:03;;;;;;;3.20;1.20;;;18.50;99.90;;;;;;4988578;28;20307;-73
2022/09/16 13:17:33;;;;;;;4.70;1.05;;;18.50;99.90;;;;;;4999678;28;20762;-73